sensor_id;sensor_type;location;lat;lon;timestamp;P1;durP1;ratioP1;P2;durP2;ratioP2
55037;SDS011;40937;53.594;10.034;2022-11-15T00:00:35;32.55;;;29.08;;
55037;SDS011;40937;53.594;10.034;2022-11-15T00:03:22;30.88;;;27.65;;
55037;SDS011;40937;53.594;10.034;2022-11-15T00:06:08;31.95;;;28.52;;
55037;SDS011;40937;53.594;10.034;2022-11-15T00:08:54;31.08;;;27.98;;
55037;SDS011;40937;53.594;10.034;2022-11-15T00:11:42;34.80;;;28.58;;
55037;SDS011;40937;53.594;10.034;2022-11-15T00:14:27;31.88;;;28.67;;
55037;SDS011;40937;53.594;10.034;2022-11-15T00:17:13;32.90;;;29.40;;
55037;SDS011;40937;53.594;10.034;2022-11-15T00:19:59;33.17;;;29.73;;
55037;SDS011;40937;53.594;10.034;2022-11-15T00:22:45;31.67;;;28.42;;
55037;SDS011;40937;53.594;10.034;2022-11-15T00:25:30;33.60;;;30.08;;
55037;SDS011;40937;53.594;10.034;2022-11-15T00:28:16;36.28;;;29.52;;
55037;SDS011;40937;53.594;10.034;2022-11-15T00:31:01;33.33;;;29.77;;
55037;SDS011;40937;53.594;10.034;2022-11-15T00:33:47;33.05;;;29.20;;
55037;SDS011;40937;53.594;10.034;2022-11-15T00:36:34;33.95;;;29.30;;
55037;SDS011;40937;53.594;10.034;2022-11-15T00:39:19;30.50;;;27.42;;
55037;SDS011;40937;53.594;10.034;2022-11-15T00:42:05;30.58;;;27.58;;
55037;SDS011;40937;53.594;10.034;2022-11-15T00:44:50;30.90;;;27.80;;
55037;SDS011;40937;53.594;10.034;2022-11-15T00:47:35;30.45;;;27.38;;
55037;SDS011;40937;53.594;10.034;2022-11-15T00:50:21;31.65;;;28.42;;
55037;SDS011;40937;53.594;10.034;2022-11-15T00:53:08;31.70;;;28.40;;
55037;SDS011;40937;53.594;10.034;2022-11-15T00:55:54;33.00;;;29.75;;
55037;SDS011;40937;53.594;10.034;2022-11-15T00:58:39;32.83;;;29.38;;
55037;SDS011;40937;53.594;10.034;2022-11-15T01:01:25;30.88;;;27.80;;
55037;SDS011;40937;53.594;10.034;2022-11-15T01:04:10;30.25;;;27.33;;
55037;SDS011;40937;53.594;10.034;2022-11-15T01:06:55;30.55;;;27.35;;
55037;SDS011;40937;53.594;10.034;2022-11-15T01:09:42;30.98;;;27.92;;
55037;SDS011;40937;53.594;10.034;2022-11-15T01:12:27;29.63;;;26.75;;
55037;SDS011;40937;53.594;10.034;2022-11-15T01:15:12;30.35;;;27.27;;
55037;SDS011;40937;53.594;10.034;2022-11-15T01:17:58;31.77;;;28.48;;
55037;SDS011;40937;53.594;10.034;2022-11-15T01:20:43;29.52;;;26.65;;
55037;SDS011;40937;53.594;10.034;2022-11-15T01:23:28;30.88;;;27.30;;
55037;SDS011;40937;53.594;10.034;2022-11-15T01:26:15;30.30;;;27.23;;
55037;SDS011;40937;53.594;10.034;2022-11-15T01:29:00;29.30;;;26.15;;
55037;SDS011;40937;53.594;10.034;2022-11-15T01:31:46;29.67;;;26.10;;
55037;SDS011;40937;53.594;10.034;2022-11-15T01:34:31;29.60;;;26.70;;
55037;SDS011;40937;53.594;10.034;2022-11-15T01:37:16;28.15;;;25.35;;
55037;SDS011;40937;53.594;10.034;2022-11-15T01:40:02;28.52;;;25.80;;
55037;SDS011;40937;53.594;10.034;2022-11-15T01:42:49;29.00;;;26.20;;
55037;SDS011;40937;53.594;10.034;2022-11-15T01:45:35;28.70;;;25.77;;
55037;SDS011;40937;53.594;10.034;2022-11-15T01:48:20;27.83;;;25.02;;
55037;SDS011;40937;53.594;10.034;2022-11-15T01:51:11;29.02;;;26.13;;
55037;SDS011;40937;53.594;10.034;2022-11-15T01:54:02;30.25;;;27.35;;
55037;SDS011;40937;53.594;10.034;2022-11-15T01:56:53;28.63;;;25.60;;
55037;SDS011;40937;53.594;10.034;2022-11-15T01:59:43;28.70;;;26.00;;
55037;SDS011;40937;53.594;10.034;2022-11-15T02:02:36;28.30;;;25.33;;
55037;SDS011;40937;53.594;10.034;2022-11-15T02:05:25;29.38;;;26.40;;
55037;SDS011;40937;53.594;10.034;2022-11-15T02:08:11;28.45;;;25.67;;
55037;SDS011;40937;53.594;10.034;2022-11-15T02:11:04;29.10;;;26.33;;
55037;SDS011;40937;53.594;10.034;2022-11-15T02:13:52;28.92;;;26.02;;
55037;SDS011;40937;53.594;10.034;2022-11-15T02:16:41;28.30;;;25.60;;
55037;SDS011;40937;53.594;10.034;2022-11-15T02:23:04;28.98;;;25.90;;
55037;SDS011;40937;53.594;10.034;2022-11-15T02:26:14;28.35;;;25.55;;
55037;SDS011;40937;53.594;10.034;2022-11-15T02:29:18;27.42;;;24.63;;
55037;SDS011;40937;53.594;10.034;2022-11-15T02:32:17;27.60;;;25.00;;
55037;SDS011;40937;53.594;10.034;2022-11-15T02:35:08;28.85;;;26.13;;
55037;SDS011;40937;53.594;10.034;2022-11-15T02:38:02;28.20;;;25.40;;
55037;SDS011;40937;53.594;10.034;2022-11-15T02:40:53;28.65;;;25.80;;
55037;SDS011;40937;53.594;10.034;2022-11-15T02:43:45;27.92;;;25.05;;
55037;SDS011;40937;53.594;10.034;2022-11-15T02:46:45;27.55;;;24.75;;
55037;SDS011;40937;53.594;10.034;2022-11-15T02:49:53;26.88;;;24.27;;
55037;SDS011;40937;53.594;10.034;2022-11-15T02:52:44;28.70;;;25.90;;
55037;SDS011;40937;53.594;10.034;2022-11-15T02:55:31;26.83;;;24.15;;
55037;SDS011;40937;53.594;10.034;2022-11-15T02:58:23;27.55;;;24.33;;
55037;SDS011;40937;53.594;10.034;2022-11-15T03:01:25;27.77;;;24.77;;
55037;SDS011;40937;53.594;10.034;2022-11-15T03:04:22;26.15;;;23.50;;
55037;SDS011;40937;53.594;10.034;2022-11-15T03:07:19;25.25;;;22.63;;
55037;SDS011;40937;53.594;10.034;2022-11-15T03:10:16;27.27;;;24.45;;
55037;SDS011;40937;53.594;10.034;2022-11-15T03:13:12;26.83;;;24.23;;
55037;SDS011;40937;53.594;10.034;2022-11-15T03:16:06;25.83;;;23.33;;
55037;SDS011;40937;53.594;10.034;2022-11-15T03:18:57;26.50;;;23.80;;
55037;SDS011;40937;53.594;10.034;2022-11-15T03:21:48;25.83;;;22.92;;
55037;SDS011;40937;53.594;10.034;2022-11-15T03:24:36;24.08;;;21.75;;
55037;SDS011;40937;53.594;10.034;2022-11-15T03:27:24;24.55;;;22.13;;
55037;SDS011;40937;53.594;10.034;2022-11-15T03:30:13;24.52;;;21.98;;
55037;SDS011;40937;53.594;10.034;2022-11-15T03:32:59;24.20;;;21.98;;
55037;SDS011;40937;53.594;10.034;2022-11-15T03:35:46;24.00;;;21.65;;
55037;SDS011;40937;53.594;10.034;2022-11-15T03:38:33;23.25;;;21.00;;
55037;SDS011;40937;53.594;10.034;2022-11-15T03:41:22;24.45;;;20.92;;
55037;SDS011;40937;53.594;10.034;2022-11-15T03:44:13;24.23;;;21.83;;
55037;SDS011;40937;53.594;10.034;2022-11-15T03:47:06;22.92;;;20.55;;
55037;SDS011;40937;53.594;10.034;2022-11-15T03:49:56;23.17;;;21.02;;
55037;SDS011;40937;53.594;10.034;2022-11-15T03:52:45;23.48;;;21.17;;
55037;SDS011;40937;53.594;10.034;2022-11-15T03:55:31;22.25;;;20.02;;
55037;SDS011;40937;53.594;10.034;2022-11-15T03:58:19;22.50;;;20.35;;
55037;SDS011;40937;53.594;10.034;2022-11-15T04:01:04;24.15;;;20.15;;
55037;SDS011;40937;53.594;10.034;2022-11-15T04:03:49;24.20;;;20.92;;
55037;SDS011;40937;53.594;10.034;2022-11-15T04:06:34;21.60;;;19.70;;
55037;SDS011;40937;53.594;10.034;2022-11-15T04:09:20;21.90;;;20.02;;
55037;SDS011;40937;53.594;10.034;2022-11-15T04:12:05;21.80;;;19.70;;
55037;SDS011;40937;53.594;10.034;2022-11-15T04:14:52;21.75;;;19.65;;
55037;SDS011;40937;53.594;10.034;2022-11-15T04:17:51;21.85;;;19.45;;
55037;SDS011;40937;53.594;10.034;2022-11-15T04:20:37;22.15;;;20.05;;
55037;SDS011;40937;53.594;10.034;2022-11-15T04:23:40;22.02;;;20.00;;
55037;SDS011;40937;53.594;10.034;2022-11-15T04:26:42;21.10;;;19.10;;
55037;SDS011;40937;53.594;10.034;2022-11-15T04:29:28;21.80;;;19.80;;
55037;SDS011;40937;53.594;10.034;2022-11-15T04:32:19;21.42;;;19.35;;
55037;SDS011;40937;53.594;10.034;2022-11-15T04:35:06;23.83;;;18.75;;
55037;SDS011;40937;53.594;10.034;2022-11-15T04:37:51;21.42;;;19.33;;
55037;SDS011;40937;53.594;10.034;2022-11-15T04:40:37;21.20;;;19.15;;
55037;SDS011;40937;53.594;10.034;2022-11-15T04:43:22;21.67;;;19.40;;
55037;SDS011;40937;53.594;10.034;2022-11-15T04:46:08;21.13;;;19.10;;
55037;SDS011;40937;53.594;10.034;2022-11-15T04:48:53;21.35;;;19.27;;
55037;SDS011;40937;53.594;10.034;2022-11-15T04:51:40;22.40;;;20.10;;
55037;SDS011;40937;53.594;10.034;2022-11-15T04:54:25;21.50;;;19.58;;
55037;SDS011;40937;53.594;10.034;2022-11-15T04:57:11;21.08;;;19.13;;
55037;SDS011;40937;53.594;10.034;2022-11-15T04:59:56;21.48;;;19.40;;
55037;SDS011;40937;53.594;10.034;2022-11-15T05:02:41;20.33;;;18.42;;
55037;SDS011;40937;53.594;10.034;2022-11-15T05:05:44;20.90;;;18.70;;
55037;SDS011;40937;53.594;10.034;2022-11-15T05:08:31;21.23;;;19.23;;
55037;SDS011;40937;53.594;10.034;2022-11-15T05:11:16;20.83;;;18.65;;
55037;SDS011;40937;53.594;10.034;2022-11-15T05:14:01;20.77;;;18.88;;
55037;SDS011;40937;53.594;10.034;2022-11-15T05:16:47;21.67;;;19.45;;
55037;SDS011;40937;53.594;10.034;2022-11-15T05:19:32;20.75;;;18.75;;
55037;SDS011;40937;53.594;10.034;2022-11-15T05:22:17;20.88;;;19.08;;
55037;SDS011;40937;53.594;10.034;2022-11-15T05:25:04;20.35;;;18.45;;
55037;SDS011;40937;53.594;10.034;2022-11-15T05:27:50;22.30;;;19.85;;
55037;SDS011;40937;53.594;10.034;2022-11-15T05:30:36;21.83;;;19.55;;
55037;SDS011;40937;53.594;10.034;2022-11-15T05:33:21;20.58;;;18.67;;
55037;SDS011;40937;53.594;10.034;2022-11-15T05:36:07;20.48;;;18.65;;
55037;SDS011;40937;53.594;10.034;2022-11-15T05:38:57;19.70;;;17.85;;
55037;SDS011;40937;53.594;10.034;2022-11-15T05:41:44;20.88;;;19.05;;
55037;SDS011;40937;53.594;10.034;2022-11-15T05:44:32;22.02;;;19.65;;
55037;SDS011;40937;53.594;10.034;2022-11-15T05:47:19;20.77;;;18.77;;
55037;SDS011;40937;53.594;10.034;2022-11-15T05:50:08;21.08;;;19.10;;
55037;SDS011;40937;53.594;10.034;2022-11-15T05:52:57;21.23;;;18.88;;
55037;SDS011;40937;53.594;10.034;2022-11-15T05:55:43;20.13;;;18.13;;
55037;SDS011;40937;53.594;10.034;2022-11-15T05:58:31;20.73;;;18.77;;
55037;SDS011;40937;53.594;10.034;2022-11-15T06:01:17;20.65;;;18.38;;
55037;SDS011;40937;53.594;10.034;2022-11-15T06:04:02;20.30;;;18.25;;
55037;SDS011;40937;53.594;10.034;2022-11-15T06:06:47;21.17;;;19.00;;
55037;SDS011;40937;53.594;10.034;2022-11-15T06:09:32;20.17;;;18.42;;
55037;SDS011;40937;53.594;10.034;2022-11-15T06:12:18;21.17;;;18.95;;
55037;SDS011;40937;53.594;10.034;2022-11-15T06:15:05;21.17;;;19.27;;
55037;SDS011;40937;53.594;10.034;2022-11-15T06:17:51;24.17;;;20.13;;
55037;SDS011;40937;53.594;10.034;2022-11-15T06:20:40;20.90;;;18.80;;
55037;SDS011;40937;53.594;10.034;2022-11-15T06:23:26;19.95;;;18.08;;
55037;SDS011;40937;53.594;10.034;2022-11-15T06:26:11;19.45;;;17.48;;
55037;SDS011;40937;53.594;10.034;2022-11-15T06:28:56;21.25;;;19.05;;
55037;SDS011;40937;53.594;10.034;2022-11-15T06:31:43;21.17;;;19.05;;
55037;SDS011;40937;53.594;10.034;2022-11-15T06:34:28;20.52;;;18.45;;
55037;SDS011;40937;53.594;10.034;2022-11-15T06:37:13;20.40;;;18.48;;
55037;SDS011;40937;53.594;10.034;2022-11-15T06:39:59;20.33;;;18.33;;
55037;SDS011;40937;53.594;10.034;2022-11-15T06:42:44;20.00;;;17.77;;
55037;SDS011;40937;53.594;10.034;2022-11-15T06:45:29;21.65;;;19.55;;
55037;SDS011;40937;53.594;10.034;2022-11-15T06:48:16;20.75;;;18.85;;
55037;SDS011;40937;53.594;10.034;2022-11-15T06:51:02;20.85;;;18.73;;
55037;SDS011;40937;53.594;10.034;2022-11-15T06:53:48;23.77;;;18.42;;
55037;SDS011;40937;53.594;10.034;2022-11-15T06:56:34;15.02;;;13.52;;
55037;SDS011;40937;53.594;10.034;2022-11-15T06:59:19;33.42;;;18.20;;
55037;SDS011;40937;53.594;10.034;2022-11-15T07:02:05;20.25;;;18.20;;
55037;SDS011;40937;53.594;10.034;2022-11-15T07:04:51;20.90;;;18.42;;
55037;SDS011;40937;53.594;10.034;2022-11-15T07:07:36;21.23;;;19.13;;
55037;SDS011;40937;53.594;10.034;2022-11-15T07:10:22;22.40;;;18.98;;
55037;SDS011;40937;53.594;10.034;2022-11-15T07:13:08;21.45;;;19.10;;
55037;SDS011;40937;53.594;10.034;2022-11-15T07:15:53;22.35;;;18.15;;
55037;SDS011;40937;53.594;10.034;2022-11-15T07:18:39;19.73;;;17.95;;
55037;SDS011;40937;53.594;10.034;2022-11-15T07:21:26;21.95;;;19.55;;
55037;SDS011;40937;53.594;10.034;2022-11-15T07:24:11;21.83;;;19.75;;
55037;SDS011;40937;53.594;10.034;2022-11-15T07:26:57;21.08;;;19.10;;
55037;SDS011;40937;53.594;10.034;2022-11-15T07:29:44;20.33;;;17.45;;
55037;SDS011;40937;53.594;10.034;2022-11-15T07:32:29;21.15;;;19.17;;
55037;SDS011;40937;53.594;10.034;2022-11-15T07:35:14;27.10;;;19.10;;
55037;SDS011;40937;53.594;10.034;2022-11-15T07:38:01;21.63;;;19.52;;
55037;SDS011;40937;53.594;10.034;2022-11-15T07:40:55;21.38;;;19.20;;
55037;SDS011;40937;53.594;10.034;2022-11-15T07:43:40;23.55;;;20.73;;
55037;SDS011;40937;53.594;10.034;2022-11-15T07:46:26;20.88;;;18.80;;
55037;SDS011;40937;53.594;10.034;2022-11-15T07:49:11;21.67;;;18.10;;
55037;SDS011;40937;53.594;10.034;2022-11-15T07:51:56;20.50;;;18.55;;
55037;SDS011;40937;53.594;10.034;2022-11-15T07:54:46;20.27;;;18.40;;
55037;SDS011;40937;53.594;10.034;2022-11-15T07:57:31;21.20;;;19.00;;
55037;SDS011;40937;53.594;10.034;2022-11-15T08:00:17;23.48;;;19.48;;
55037;SDS011;40937;53.594;10.034;2022-11-15T08:03:03;21.90;;;19.75;;
55037;SDS011;40937;53.594;10.034;2022-11-15T08:05:50;20.10;;;18.10;;
55037;SDS011;40937;53.594;10.034;2022-11-15T08:08:36;20.98;;;18.67;;
55037;SDS011;40937;53.594;10.034;2022-11-15T08:11:22;23.55;;;17.77;;
55037;SDS011;40937;53.594;10.034;2022-11-15T08:14:07;21.05;;;19.08;;
55037;SDS011;40937;53.594;10.034;2022-11-15T08:16:54;21.98;;;19.58;;
55037;SDS011;40937;53.594;10.034;2022-11-15T08:19:39;21.42;;;18.95;;
55037;SDS011;40937;53.594;10.034;2022-11-15T08:22:24;22.80;;;20.55;;
55037;SDS011;40937;53.594;10.034;2022-11-15T08:25:09;20.90;;;18.67;;
55037;SDS011;40937;53.594;10.034;2022-11-15T08:27:57;23.73;;;20.20;;
55037;SDS011;40937;53.594;10.034;2022-11-15T08:30:43;21.10;;;18.85;;
55037;SDS011;40937;53.594;10.034;2022-11-15T08:33:29;19.67;;;17.88;;
55037;SDS011;40937;53.594;10.034;2022-11-15T08:36:15;21.20;;;18.98;;
55037;SDS011;40937;53.594;10.034;2022-11-15T08:39:01;21.60;;;19.30;;
55037;SDS011;40937;53.594;10.034;2022-11-15T08:41:48;20.90;;;18.80;;
55037;SDS011;40937;53.594;10.034;2022-11-15T08:44:34;22.27;;;19.88;;
55037;SDS011;40937;53.594;10.034;2022-11-15T08:47:20;20.73;;;17.40;;
55037;SDS011;40937;53.594;10.034;2022-11-15T08:50:05;21.95;;;19.85;;
55037;SDS011;40937;53.594;10.034;2022-11-15T08:52:51;21.15;;;19.13;;
55037;SDS011;40937;53.594;10.034;2022-11-15T08:55:37;21.55;;;19.10;;
55037;SDS011;40937;53.594;10.034;2022-11-15T08:58:23;21.02;;;18.55;;
55037;SDS011;40937;53.594;10.034;2022-11-15T09:01:15;21.55;;;19.42;;
55037;SDS011;40937;53.594;10.034;2022-11-15T09:04:02;20.98;;;18.88;;
55037;SDS011;40937;53.594;10.034;2022-11-15T09:06:47;21.23;;;18.98;;
55037;SDS011;40937;53.594;10.034;2022-11-15T09:09:33;21.40;;;19.42;;
55037;SDS011;40937;53.594;10.034;2022-11-15T09:12:18;23.05;;;18.20;;
55037;SDS011;40937;53.594;10.034;2022-11-15T09:15:04;20.67;;;18.58;;
55037;SDS011;40937;53.594;10.034;2022-11-15T09:17:52;20.55;;;18.75;;
55037;SDS011;40937;53.594;10.034;2022-11-15T09:20:37;21.15;;;18.83;;
55037;SDS011;40937;53.594;10.034;2022-11-15T09:23:22;20.80;;;18.75;;
55037;SDS011;40937;53.594;10.034;2022-11-15T09:26:08;21.17;;;18.85;;
55037;SDS011;40937;53.594;10.034;2022-11-15T09:28:53;20.52;;;18.63;;
55037;SDS011;40937;53.594;10.034;2022-11-15T09:31:39;20.60;;;18.50;;
55037;SDS011;40937;53.594;10.034;2022-11-15T09:34:25;20.02;;;18.02;;
55037;SDS011;40937;53.594;10.034;2022-11-15T09:37:11;21.58;;;19.45;;
55037;SDS011;40937;53.594;10.034;2022-11-15T09:39:56;20.00;;;17.98;;
55037;SDS011;40937;53.594;10.034;2022-11-15T09:42:46;20.98;;;18.92;;
55037;SDS011;40937;53.594;10.034;2022-11-15T09:45:55;20.10;;;18.30;;
55037;SDS011;40937;53.594;10.034;2022-11-15T09:48:50;18.65;;;16.88;;
55037;SDS011;40937;53.594;10.034;2022-11-15T09:51:49;19.33;;;17.63;;
55037;SDS011;40937;53.594;10.034;2022-11-15T09:54:26;20.15;;;17.77;;
55037;SDS011;40937;53.594;10.034;2022-11-15T09:56:55;20.10;;;18.10;;
55037;SDS011;40937;53.594;10.034;2022-11-15T10:02:10;20.27;;;17.95;;
55037;SDS011;40937;53.594;10.034;2022-11-15T10:04:45;21.08;;;18.70;;
55037;SDS011;40937;53.594;10.034;2022-11-15T10:07:14;21.60;;;19.38;;
55037;SDS011;40937;53.594;10.034;2022-11-15T10:09:45;21.10;;;18.88;;
55037;SDS011;40937;53.594;10.034;2022-11-15T10:12:18;20.77;;;18.85;;
55037;SDS011;40937;53.594;10.034;2022-11-15T10:14:45;19.63;;;17.73;;
55037;SDS011;40937;53.594;10.034;2022-11-15T10:17:19;24.17;;;18.75;;
55037;SDS011;40937;53.594;10.034;2022-11-15T10:20:08;21.10;;;18.60;;
55037;SDS011;40937;53.594;10.034;2022-11-15T10:22:44;20.23;;;18.40;;
55037;SDS011;40937;53.594;10.034;2022-11-15T10:25:17;20.35;;;17.92;;
55037;SDS011;40937;53.594;10.034;2022-11-15T10:27:47;19.67;;;17.88;;
55037;SDS011;40937;53.594;10.034;2022-11-15T10:30:32;22.83;;;17.38;;
55037;SDS011;40937;53.594;10.034;2022-11-15T10:33:08;19.80;;;17.92;;
55037;SDS011;40937;53.594;10.034;2022-11-15T10:35:39;19.45;;;17.40;;
55037;SDS011;40937;53.594;10.034;2022-11-15T10:38:08;18.38;;;16.60;;
55037;SDS011;40937;53.594;10.034;2022-11-15T10:40:37;19.17;;;17.15;;
55037;SDS011;40937;53.594;10.034;2022-11-15T10:43:10;18.90;;;17.08;;
55037;SDS011;40937;53.594;10.034;2022-11-15T10:45:41;17.10;;;15.55;;
55037;SDS011;40937;53.594;10.034;2022-11-15T10:48:19;19.13;;;17.02;;
55037;SDS011;40937;53.594;10.034;2022-11-15T10:50:50;18.15;;;15.65;;
55037;SDS011;40937;53.594;10.034;2022-11-15T10:53:21;17.73;;;15.85;;
55037;SDS011;40937;53.594;10.034;2022-11-15T10:55:51;17.88;;;15.98;;
55037;SDS011;40937;53.594;10.034;2022-11-15T10:58:21;16.50;;;14.98;;
55037;SDS011;40937;53.594;10.034;2022-11-15T11:00:58;18.10;;;15.57;;
55037;SDS011;40937;53.594;10.034;2022-11-15T11:03:35;18.25;;;15.65;;
55037;SDS011;40937;53.594;10.034;2022-11-15T11:06:04;16.10;;;14.57;;
55037;SDS011;40937;53.594;10.034;2022-11-15T11:08:35;15.15;;;13.93;;
55037;SDS011;40937;53.594;10.034;2022-11-15T11:11:03;15.32;;;13.75;;
55037;SDS011;40937;53.594;10.034;2022-11-15T11:13:32;14.02;;;12.75;;
55037;SDS011;40937;53.594;10.034;2022-11-15T11:16:07;14.15;;;12.27;;
55037;SDS011;40937;53.594;10.034;2022-11-15T11:18:45;16.88;;;13.27;;
55037;SDS011;40937;53.594;10.034;2022-11-15T11:21:23;14.48;;;13.15;;
55037;SDS011;40937;53.594;10.034;2022-11-15T11:23:56;14.15;;;12.52;;
55037;SDS011;40937;53.594;10.034;2022-11-15T11:26:33;16.48;;;12.85;;
55037;SDS011;40937;53.594;10.034;2022-11-15T11:29:14;15.68;;;12.65;;
55037;SDS011;40937;53.594;10.034;2022-11-15T11:31:50;13.55;;;12.35;;
55037;SDS011;40937;53.594;10.034;2022-11-15T11:34:29;15.05;;;13.48;;
55037;SDS011;40937;53.594;10.034;2022-11-15T11:37:10;13.77;;;12.57;;
55037;SDS011;40937;53.594;10.034;2022-11-15T11:39:47;13.52;;;11.95;;
55037;SDS011;40937;53.594;10.034;2022-11-15T11:42:31;15.65;;;13.20;;
55037;SDS011;40937;53.594;10.034;2022-11-15T11:45:06;15.90;;;12.80;;
55037;SDS011;40937;53.594;10.034;2022-11-15T11:47:43;14.27;;;13.00;;
55037;SDS011;40937;53.594;10.034;2022-11-15T11:50:14;13.50;;;12.02;;
55037;SDS011;40937;53.594;10.034;2022-11-15T11:52:47;17.13;;;13.82;;
55037;SDS011;40937;53.594;10.034;2022-11-15T11:55:24;14.55;;;13.18;;
55037;SDS011;40937;53.594;10.034;2022-11-15T11:57:58;16.70;;;14.15;;
55037;SDS011;40937;53.594;10.034;2022-11-15T12:00:31;17.42;;;14.50;;
55037;SDS011;40937;53.594;10.034;2022-11-15T12:03:03;17.27;;;13.23;;
55037;SDS011;40937;53.594;10.034;2022-11-15T12:05:36;13.98;;;12.77;;
55037;SDS011;40937;53.594;10.034;2022-11-15T12:08:10;14.18;;;12.75;;
55037;SDS011;40937;53.594;10.034;2022-11-15T12:10:52;15.57;;;13.15;;
55037;SDS011;40937;53.594;10.034;2022-11-15T12:13:24;17.40;;;13.25;;
55037;SDS011;40937;53.594;10.034;2022-11-15T12:18:41;15.35;;;13.10;;
55037;SDS011;40937;53.594;10.034;2022-11-15T12:21:14;14.75;;;13.25;;
55037;SDS011;40937;53.594;10.034;2022-11-15T12:23:46;13.48;;;12.18;;
55037;SDS011;40937;53.594;10.034;2022-11-15T12:26:18;13.90;;;12.48;;
55037;SDS011;40937;53.594;10.034;2022-11-15T12:28:50;13.27;;;12.10;;
55037;SDS011;40937;53.594;10.034;2022-11-15T12:31:21;15.68;;;13.27;;
55037;SDS011;40937;53.594;10.034;2022-11-15T12:33:51;14.18;;;12.77;;
55037;SDS011;40937;53.594;10.034;2022-11-15T12:36:30;17.13;;;12.02;;
55037;SDS011;40937;53.594;10.034;2022-11-15T12:39:02;13.98;;;12.60;;
55037;SDS011;40937;53.594;10.034;2022-11-15T12:41:32;13.07;;;11.95;;
55037;SDS011;40937;53.594;10.034;2022-11-15T12:44:00;12.88;;;11.55;;
55037;SDS011;40937;53.594;10.034;2022-11-15T12:49:42;14.13;;;11.25;;
55037;SDS011;40937;53.594;10.034;2022-11-15T12:52:10;17.15;;;12.38;;
55037;SDS011;40937;53.594;10.034;2022-11-15T12:54:57;13.25;;;12.05;;
55037;SDS011;40937;53.594;10.034;2022-11-15T12:57:46;15.40;;;12.57;;
55037;SDS011;40937;53.594;10.034;2022-11-15T13:03:19;12.55;;;11.27;;
55037;SDS011;40937;53.594;10.034;2022-11-15T13:05:58;11.77;;;10.68;;
55037;SDS011;40937;53.594;10.034;2022-11-15T13:08:41;13.50;;;12.20;;
55037;SDS011;40937;53.594;10.034;2022-11-15T13:17:18;12.52;;;11.20;;
55037;SDS011;40937;53.594;10.034;2022-11-15T13:19:52;12.68;;;11.57;;
55037;SDS011;40937;53.594;10.034;2022-11-15T13:22:24;12.15;;;10.95;;
55037;SDS011;40937;53.594;10.034;2022-11-15T13:25:14;16.50;;;11.68;;
55037;SDS011;40937;53.594;10.034;2022-11-15T13:27:45;12.27;;;10.57;;
55037;SDS011;40937;53.594;10.034;2022-11-15T13:30:16;13.20;;;11.20;;
55037;SDS011;40937;53.594;10.034;2022-11-15T13:32:47;13.07;;;11.18;;
55037;SDS011;40937;53.594;10.034;2022-11-15T13:35:18;12.23;;;11.13;;
55037;SDS011;40937;53.594;10.034;2022-11-15T13:37:47;12.95;;;11.57;;
55037;SDS011;40937;53.594;10.034;2022-11-15T13:40:17;12.90;;;11.65;;
55037;SDS011;40937;53.594;10.034;2022-11-15T13:42:48;12.35;;;11.20;;
55037;SDS011;40937;53.594;10.034;2022-11-15T13:45:17;12.93;;;11.43;;
55037;SDS011;40937;53.594;10.034;2022-11-15T13:47:44;12.73;;;11.18;;
55037;SDS011;40937;53.594;10.034;2022-11-15T13:50:17;12.57;;;11.30;;
55037;SDS011;40937;53.594;10.034;2022-11-15T13:52:47;12.52;;;11.25;;
55037;SDS011;40937;53.594;10.034;2022-11-15T13:55:15;13.65;;;11.18;;
55037;SDS011;40937;53.594;10.034;2022-11-15T13:57:46;12.25;;;11.25;;
55037;SDS011;40937;53.594;10.034;2022-11-15T14:00:29;11.48;;;10.57;;
55037;SDS011;40937;53.594;10.034;2022-11-15T14:03:05;11.82;;;10.75;;
55037;SDS011;40937;53.594;10.034;2022-11-15T14:05:33;12.50;;;11.20;;
55037;SDS011;40937;53.594;10.034;2022-11-15T14:08:01;11.65;;;10.50;;
55037;SDS011;40937;53.594;10.034;2022-11-15T14:10:30;21.58;;;10.88;;
55037;SDS011;40937;53.594;10.034;2022-11-15T14:12:58;11.63;;;10.63;;
55037;SDS011;40937;53.594;10.034;2022-11-15T14:15:27;12.05;;;10.98;;
55037;SDS011;40937;53.594;10.034;2022-11-15T14:17:57;11.60;;;10.65;;
55037;SDS011;40937;53.594;10.034;2022-11-15T14:20:34;12.45;;;11.27;;
55037;SDS011;40937;53.594;10.034;2022-11-15T14:23:03;16.63;;;10.90;;
55037;SDS011;40937;53.594;10.034;2022-11-15T14:25:31;11.90;;;10.85;;
55037;SDS011;40937;53.594;10.034;2022-11-15T14:30:57;11.98;;;10.85;;
55037;SDS011;40937;53.594;10.034;2022-11-15T14:33:27;11.35;;;10.25;;
55037;SDS011;40937;53.594;10.034;2022-11-15T14:35:56;12.15;;;10.98;;
55037;SDS011;40937;53.594;10.034;2022-11-15T14:38:24;12.68;;;10.23;;
55037;SDS011;40937;53.594;10.034;2022-11-15T14:40:51;11.38;;;9.73;;
55037;SDS011;40937;53.594;10.034;2022-11-15T14:43:19;13.38;;;11.00;;
55037;SDS011;40937;53.594;10.034;2022-11-15T14:45:45;13.13;;;11.90;;
55037;SDS011;40937;53.594;10.034;2022-11-15T14:48:13;14.65;;;12.25;;
55037;SDS011;40937;53.594;10.034;2022-11-15T14:50:40;13.50;;;12.30;;
55037;SDS011;40937;53.594;10.034;2022-11-15T14:53:10;13.63;;;10.95;;
55037;SDS011;40937;53.594;10.034;2022-11-15T14:55:39;12.00;;;10.68;;
55037;SDS011;40937;53.594;10.034;2022-11-15T14:58:06;11.98;;;10.88;;
55037;SDS011;40937;53.594;10.034;2022-11-15T15:00:34;13.05;;;10.80;;
55037;SDS011;40937;53.594;10.034;2022-11-15T15:03:01;11.98;;;10.68;;
55037;SDS011;40937;53.594;10.034;2022-11-15T15:05:31;12.50;;;11.23;;
55037;SDS011;40937;53.594;10.034;2022-11-15T15:07:59;17.65;;;11.68;;
55037;SDS011;40937;53.594;10.034;2022-11-15T15:10:27;14.13;;;12.65;;
55037;SDS011;40937;53.594;10.034;2022-11-15T15:12:57;12.73;;;11.38;;
55037;SDS011;40937;53.594;10.034;2022-11-15T15:15:25;13.85;;;11.38;;
55037;SDS011;40937;53.594;10.034;2022-11-15T15:17:54;11.85;;;10.60;;
55037;SDS011;40937;53.594;10.034;2022-11-15T15:20:20;11.25;;;10.27;;
55037;SDS011;40937;53.594;10.034;2022-11-15T15:22:49;10.60;;;9.50;;
55037;SDS011;40937;53.594;10.034;2022-11-15T15:25:19;15.20;;;10.15;;
55037;SDS011;40937;53.594;10.034;2022-11-15T15:27:47;13.38;;;10.00;;
55037;SDS011;40937;53.594;10.034;2022-11-15T15:30:14;10.95;;;10.05;;
55037;SDS011;40937;53.594;10.034;2022-11-15T15:32:41;11.55;;;10.10;;
55037;SDS011;40937;53.594;10.034;2022-11-15T15:35:10;12.15;;;9.55;;
55037;SDS011;40937;53.594;10.034;2022-11-15T15:37:37;10.93;;;9.80;;
55037;SDS011;40937;53.594;10.034;2022-11-15T15:40:10;12.40;;;10.32;;
55037;SDS011;40937;53.594;10.034;2022-11-15T15:42:39;10.88;;;9.65;;
55037;SDS011;40937;53.594;10.034;2022-11-15T15:45:06;10.35;;;9.35;;
55037;SDS011;40937;53.594;10.034;2022-11-15T15:47:34;11.07;;;10.10;;
55037;SDS011;40937;53.594;10.034;2022-11-15T15:50:00;11.35;;;10.38;;
55037;SDS011;40937;53.594;10.034;2022-11-15T15:52:28;10.02;;;9.23;;
55037;SDS011;40937;53.594;10.034;2022-11-15T15:54:55;10.82;;;9.82;;